Terminal Aerodrome Forecast
Issued by NWS

Home | Current Version | Previous Version | Text Only | Print | Product List | Glossary On
Versions: 1 2 3 4 5 6 7 8 9 10 11 12 13 14 15 16 17 18 19
000
FTUS42 KFFC 010500
TAFRYY
TAF
KRYY 010534Z 0106/0206 06007KT P6SM VCSH SCT004 OVC008
      TEMPO 0110/0112 4SM BR OVC004
     FM011500 07006KT P6SM VCSH BKN012
     FM011800 06005KT P6SM VCSH SCT025 BKN035
      TEMPO 0119/0123 6SM -SHRA BR BKN025
     FM012300 05004KT P6SM VCSH BKN025
      AMD NOT SKED TIL 011200=

USA.gov is the U.S. government's official web portal to all federal, state and local government web resources and services.